createdAt,value
2018-06-17T00:00:07.038Z,16.10
2018-06-17T00:02:36.016Z,16.10
2018-06-17T00:07:33.108Z,16.10
2018-06-17T00:10:01.992Z,16.10
2018-06-17T00:12:30.651Z,16.10
2018-06-17T00:14:59.440Z,16.10
2018-06-17T00:17:27.988Z,16.00
2018-06-17T00:19:56.729Z,16.00
2018-06-17T00:24:53.940Z,16.00
2018-06-17T00:27:22.858Z,15.90
2018-06-17T00:29:51.719Z,15.90
2018-06-17T00:32:20.414Z,15.90
2018-06-17T00:34:48.970Z,15.80
2018-06-17T00:37:17.620Z,15.80
2018-06-17T00:39:46.353Z,15.80
2018-06-17T00:42:15.075Z,15.80
2018-06-17T00:44:44.013Z,15.80
2018-06-17T00:47:12.671Z,15.80
2018-06-17T00:49:41.464Z,15.80
2018-06-17T00:52:10.181Z,15.80
2018-06-17T00:54:38.927Z,15.70
2018-06-17T00:57:18.892Z,15.70
2018-06-17T00:59:47.882Z,15.70
2018-06-17T01:02:16.893Z,15.70
2018-06-17T01:04:45.832Z,15.70
2018-06-17T01:07:14.495Z,15.70
2018-06-17T01:09:43.772Z,15.70
2018-06-17T01:12:12.422Z,15.70
2018-06-17T01:14:41.314Z,15.70
2018-06-17T01:17:09.919Z,15.70
2018-06-17T01:19:38.772Z,15.70
2018-06-17T01:22:07.606Z,15.60
2018-06-17T01:24:36.359Z,15.60
2018-06-17T01:27:05.238Z,15.60
2018-06-17T01:29:34.036Z,15.60
2018-06-17T01:32:02.660Z,15.60
2018-06-17T01:34:31.286Z,15.60
2018-06-17T01:36:59.980Z,15.60
2018-06-17T01:39:28.758Z,15.60
2018-06-17T01:41:57.547Z,15.60
2018-06-17T01:46:54.754Z,15.50
2018-06-17T01:49:23.484Z,15.50
2018-06-17T01:51:52.895Z,15.50
2018-06-17T01:54:21.693Z,15.40
2018-06-17T01:56:50.314Z,15.40
2018-06-17T01:59:18.965Z,15.40
2018-06-17T02:04:22.108Z,15.30
2018-06-17T02:06:56.340Z,15.30
2018-06-17T02:09:30.336Z,15.30
2018-06-17T02:12:08.032Z,15.20
2018-06-17T02:14:42.040Z,15.20
2018-06-17T02:17:10.655Z,15.10
2018-06-17T02:19:39.220Z,15.00
2018-06-17T02:22:07.868Z,14.90
2018-06-17T02:24:36.598Z,14.90
2018-06-17T02:27:05.518Z,14.90
2018-06-17T02:29:34.072Z,14.90
2018-06-17T02:32:02.949Z,14.90
2018-06-17T02:34:31.782Z,14.90
2018-06-17T02:37:00.608Z,14.80
2018-06-17T02:39:29.347Z,14.80
2018-06-17T02:41:58.129Z,14.80
2018-06-17T02:44:27.052Z,14.80
2018-06-17T02:47:01.003Z,14.80
2018-06-17T02:49:34.887Z,14.80
2018-06-17T02:52:08.945Z,14.80
2018-06-17T02:54:40.302Z,14.70
2018-06-17T02:57:10.373Z,14.70
2018-06-17T02:59:39.377Z,14.70
2018-06-17T03:02:08.051Z,14.70
2018-06-17T03:04:36.777Z,14.70
2018-06-17T03:07:05.692Z,14.70
2018-06-17T03:09:34.477Z,14.80
2018-06-17T03:12:03.275Z,14.70
2018-06-17T03:14:31.984Z,14.70
2018-06-17T03:17:00.822Z,14.70
2018-06-17T03:19:29.512Z,14.70
2018-06-17T03:21:58.256Z,14.70
2018-06-17T03:24:32.296Z,14.70
2018-06-17T03:27:06.467Z,14.70
2018-06-17T03:29:40.520Z,14.70
2018-06-17T03:32:14.532Z,14.70
2018-06-17T03:34:43.058Z,14.70
2018-06-17T03:37:11.774Z,14.70
2018-06-17T03:39:40.594Z,14.70
2018-06-17T03:42:09.382Z,14.60
2018-06-17T03:44:38.174Z,14.60
2018-06-17T03:49:35.721Z,14.60
2018-06-17T03:52:04.422Z,14.60
2018-06-17T03:54:33.206Z,14.70
2018-06-17T03:57:01.757Z,14.70
2018-06-17T03:59:30.713Z,14.70
2018-06-17T04:01:59.768Z,14.80
2018-06-17T04:04:28.497Z,14.80
2018-06-17T04:09:25.542Z,14.90
2018-06-17T04:11:54.208Z,14.90
2018-06-17T04:14:22.972Z,15.00
2018-06-17T04:16:51.719Z,15.00
2018-06-17T04:19:20.507Z,15.00
2018-06-17T04:21:49.371Z,15.10
2018-06-17T04:24:18.250Z,15.10
2018-06-17T04:26:46.928Z,15.20
2018-06-17T04:29:15.648Z,15.20
2018-06-17T04:31:44.529Z,15.30
2018-06-17T04:34:13.296Z,15.30
2018-06-17T04:36:42.060Z,15.30
2018-06-17T04:39:10.915Z,15.40
2018-06-17T04:41:39.650Z,15.40
2018-06-17T04:44:08.392Z,15.50
2018-06-17T04:46:37.285Z,15.50
2018-06-17T04:49:06.000Z,15.50
2018-06-17T04:56:31.383Z,15.80
2018-06-17T04:59:00.293Z,15.80
2018-06-17T05:01:28.918Z,15.90
2018-06-17T05:03:57.610Z,15.90
2018-06-17T05:06:26.505Z,16.00
2018-06-17T05:11:23.397Z,16.20
2018-06-17T05:13:52.546Z,16.50
2018-06-17T05:16:21.735Z,16.80
2018-06-17T05:18:50.305Z,17.00
2018-06-17T05:21:19.375Z,17.30
2018-06-17T05:23:47.991Z,17.60
2018-06-17T05:26:16.673Z,17.90
2018-06-17T05:28:45.582Z,18.20
2018-06-17T05:31:14.229Z,18.50
2018-06-17T05:33:42.903Z,18.70
2018-06-17T05:36:11.339Z,18.80
2018-06-17T05:38:40.257Z,18.80
2018-06-17T05:43:37.423Z,18.90
2018-06-17T05:46:05.957Z,19.00
2018-06-17T05:48:34.820Z,19.00
2018-06-17T05:51:03.439Z,19.10
2018-06-17T05:53:32.377Z,19.20
2018-06-17T05:56:00.923Z,19.30
2018-06-17T05:58:29.606Z,19.30
2018-06-17T06:00:58.203Z,19.40
2018-06-17T06:03:26.765Z,19.50
2018-06-17T06:05:55.783Z,19.50
2018-06-17T06:08:24.662Z,19.70
2018-06-17T06:10:53.431Z,19.80
2018-06-17T06:13:22.176Z,20.00
2018-06-17T06:15:50.704Z,20.10
2018-06-17T06:18:19.516Z,20.20
2018-06-17T06:20:48.801Z,20.20
2018-06-17T06:23:17.361Z,20.30
2018-06-17T06:25:46.185Z,20.50
2018-06-17T06:28:14.834Z,20.80
2018-06-17T06:30:43.721Z,20.90
2018-06-17T06:33:12.475Z,20.90
2018-06-17T06:35:41.227Z,20.90
2018-06-17T06:38:09.885Z,20.90
2018-06-17T06:40:38.475Z,20.90
2018-06-17T06:45:36.096Z,21.00
2018-06-17T06:48:05.093Z,21.20
2018-06-17T06:50:34.293Z,21.30
2018-06-17T06:53:03.294Z,21.30
2018-06-17T06:55:32.018Z,21.20
2018-06-17T06:58:00.810Z,21.20
2018-06-17T07:00:29.446Z,21.10
2018-06-17T07:03:09.277Z,21.00
2018-06-17T07:05:49.137Z,20.90
2018-06-17T07:08:28.953Z,20.80
2018-06-17T07:13:25.951Z,21.20
2018-06-17T07:16:05.847Z,21.60
2018-06-17T07:18:36.768Z,21.90
2018-06-17T07:21:05.728Z,22.20
2018-06-17T07:23:34.384Z,22.50
2018-06-17T07:26:53.503Z,22.70
2018-06-17T07:29:35.739Z,22.80
2018-06-17T07:32:04.515Z,23.00
2018-06-17T07:34:33.377Z,23.10
2018-06-17T07:37:02.184Z,23.30
2018-06-17T07:41:40.160Z,23.60
2018-06-17T07:49:45.062Z,23.90
2018-06-17T07:52:26.191Z,24.00
2018-06-17T07:54:54.826Z,24.20
2018-06-17T07:57:25.050Z,24.30
2018-06-17T07:59:53.939Z,24.40
2018-06-17T08:02:22.814Z,24.50
2018-06-17T08:04:51.521Z,24.60
2018-06-17T08:07:20.161Z,24.60
2018-06-17T08:09:48.770Z,24.50
2018-06-17T08:12:17.361Z,24.20
2018-06-17T08:14:46.220Z,24.00
2018-06-17T08:19:43.133Z,24.30
2018-06-17T08:22:11.746Z,24.60
2018-06-17T08:24:40.309Z,24.80
2018-06-17T08:27:08.808Z,25.00
2018-06-17T08:29:37.343Z,25.10
2018-06-17T08:34:34.224Z,25.20
2018-06-17T08:37:02.808Z,25.20
2018-06-17T08:39:31.371Z,24.80
2018-06-17T08:44:28.469Z,24.80
2018-06-17T08:46:57.080Z,25.00
2018-06-17T08:49:25.698Z,25.20
2018-06-17T08:51:54.345Z,25.40
2018-06-17T08:54:22.951Z,25.70
2018-06-17T08:56:51.574Z,25.90
2018-06-17T08:59:20.100Z,26.10
2018-06-17T09:01:48.680Z,26.30
2018-06-17T09:04:17.288Z,26.20
2018-06-17T09:06:45.960Z,26.30
2018-06-17T09:09:14.588Z,26.50
2018-06-17T09:11:43.148Z,26.80
2018-06-17T09:14:11.847Z,27.00
2018-06-17T09:16:40.437Z,27.10
2018-06-17T09:19:09.014Z,26.90
2018-06-17T09:21:37.810Z,26.50
2018-06-17T09:24:06.539Z,26.20
2018-06-17T09:26:35.356Z,25.90
2018-06-17T09:29:04.018Z,25.50
2018-06-17T09:31:32.552Z,25.60
2018-06-17T09:34:01.286Z,25.70
2018-06-17T09:36:29.856Z,25.90
2018-06-17T09:41:26.860Z,26.40
2018-06-17T09:43:55.358Z,26.50
2018-06-17T09:46:24.096Z,26.20
2018-06-17T09:51:21.351Z,26.20
2018-06-17T09:53:49.954Z,26.20
2018-06-17T09:58:47.052Z,26.20
2018-06-17T10:01:15.823Z,26.30
2018-06-17T10:03:44.534Z,26.40
2018-06-17T10:06:13.104Z,26.30
2018-06-17T10:08:41.615Z,25.90
2018-06-17T10:11:10.046Z,25.50
2018-06-17T10:16:11.302Z,25.00
2018-06-17T10:18:40.026Z,24.90
2018-06-17T10:21:08.870Z,24.80
2018-06-17T10:23:37.384Z,24.70
2018-06-17T10:26:05.976Z,24.60
2018-06-17T10:28:35.050Z,24.50
2018-06-17T10:33:33.726Z,24.60
2018-06-17T10:36:02.228Z,25.00
2018-06-17T10:38:30.770Z,25.50
2018-06-17T10:40:59.314Z,26.00
2018-06-17T10:45:57.833Z,26.70
2018-06-17T10:48:26.385Z,26.90
2018-06-17T10:50:55.046Z,27.10
2018-06-17T10:53:23.622Z,27.20
2018-06-17T10:55:52.230Z,27.30
2018-06-17T11:00:48.931Z,27.30
2018-06-17T11:03:17.502Z,27.50
2018-06-17T11:05:46.085Z,27.60
2018-06-17T11:08:14.480Z,27.40
2018-06-17T11:10:43.201Z,27.10
2018-06-17T11:13:11.696Z,27.00
2018-06-17T11:15:40.153Z,27.00
2018-06-17T11:18:08.606Z,26.70
2018-06-17T11:20:37.316Z,26.40
2018-06-17T11:23:06.071Z,26.10
2018-06-17T11:25:34.539Z,25.80
2018-06-17T11:28:03.143Z,25.50
2018-06-17T11:32:59.847Z,24.90
2018-06-17T11:35:28.621Z,24.60
2018-06-17T11:37:57.797Z,24.40
2018-06-17T11:42:54.878Z,24.00
2018-06-17T11:45:23.382Z,23.80
2018-06-17T11:47:52.203Z,23.80
2018-06-17T11:50:20.857Z,23.70
2018-06-17T11:52:49.683Z,23.70
2018-06-17T11:55:18.456Z,23.40
2018-06-17T11:57:47.212Z,23.10
2018-06-17T12:00:15.907Z,22.80
2018-06-17T12:02:44.496Z,22.50
2018-06-17T12:05:13.731Z,22.20
2018-06-17T12:07:42.252Z,21.90
2018-06-17T12:10:11.666Z,21.80
2018-06-17T12:12:40.503Z,21.60
2018-06-17T12:15:09.901Z,21.40
2018-06-17T12:17:38.647Z,21.10
2018-06-17T12:25:46.688Z,20.50
2018-06-17T12:28:15.519Z,20.30
2018-06-17T12:30:44.197Z,20.10
2018-06-17T12:33:12.882Z,20.00
2018-06-17T12:35:41.464Z,19.90
2018-06-17T12:38:10.277Z,19.80
2018-06-17T12:40:39.242Z,19.80
2018-06-17T12:43:08.140Z,19.90
2018-06-17T12:45:36.988Z,19.90
2018-06-17T12:48:06.070Z,19.90
2018-06-17T12:50:34.760Z,20.00
2018-06-17T12:53:04.205Z,20.00
2018-06-17T12:55:32.875Z,20.10
2018-06-17T13:00:30.151Z,20.10
2018-06-17T13:02:58.979Z,20.20
2018-06-17T13:05:27.827Z,20.20
2018-06-17T13:07:56.435Z,20.30
2018-06-17T13:10:25.703Z,20.30
2018-06-17T13:12:54.295Z,20.30
2018-06-17T13:15:23.225Z,20.20
2018-06-17T13:17:52.199Z,20.10
2018-06-17T13:22:49.432Z,20.20
2018-06-17T13:25:18.087Z,20.20
2018-06-17T13:27:46.611Z,20.30
2018-06-17T13:30:15.101Z,20.30
2018-06-17T13:32:43.932Z,20.40
2018-06-17T13:35:12.674Z,20.40
2018-06-17T13:37:41.504Z,20.50
2018-06-17T13:40:10.177Z,20.60
2018-06-17T13:45:07.235Z,20.80
2018-06-17T13:50:04.663Z,21.00
2018-06-17T13:52:33.230Z,21.20
2018-06-17T13:55:01.916Z,21.30
2018-06-17T13:57:30.662Z,21.40
2018-06-17T13:59:59.535Z,21.50
2018-06-17T14:02:28.313Z,21.40
2018-06-17T14:04:57.115Z,21.40
2018-06-17T14:07:25.976Z,21.40
2018-06-17T14:09:54.677Z,21.40
2018-06-17T14:12:23.391Z,21.30
2018-06-17T14:14:52.123Z,21.20
2018-06-17T14:17:20.897Z,21.20
2018-06-17T14:19:49.467Z,21.10
2018-06-17T14:22:18.141Z,21.00
2018-06-17T14:24:47.017Z,20.90
2018-06-17T14:27:16.150Z,20.90
2018-06-17T14:29:45.021Z,20.80
2018-06-17T14:32:14.481Z,20.80
2018-06-17T14:34:43.124Z,20.80
2018-06-17T14:37:11.897Z,20.80
2018-06-17T14:39:40.724Z,20.70
2018-06-17T14:45:08.084Z,20.70
2018-06-17T14:50:16.124Z,20.70
2018-06-17T14:52:50.011Z,20.60
2018-06-17T14:55:18.998Z,20.50
2018-06-17T14:57:47.748Z,20.40
2018-06-17T15:00:16.354Z,20.30
2018-06-17T15:02:45.386Z,20.10
2018-06-17T15:05:14.062Z,20.00
2018-06-17T15:07:42.692Z,19.90
2018-06-17T15:10:11.396Z,19.80
2018-06-17T15:12:40.339Z,19.70
2018-06-17T15:15:09.014Z,19.60
2018-06-17T15:17:37.491Z,19.40
2018-06-17T15:20:06.431Z,19.30
2018-06-17T15:22:36.338Z,19.10
2018-06-17T15:25:05.086Z,19.00
2018-06-17T15:27:34.168Z,18.90
2018-06-17T15:30:03.510Z,18.90
2018-06-17T15:35:11.643Z,18.90
2018-06-17T15:37:45.659Z,18.90
2018-06-17T15:40:14.188Z,18.80
2018-06-17T15:42:43.077Z,18.70
2018-06-17T15:45:11.711Z,18.60
2018-06-17T15:47:40.413Z,18.50
2018-06-17T15:50:09.201Z,18.50
2018-06-17T15:55:06.810Z,18.30
2018-06-17T15:57:35.479Z,18.30
2018-06-17T16:00:04.798Z,18.30
2018-06-17T16:02:33.650Z,18.40
2018-06-17T16:05:02.491Z,18.40
2018-06-17T16:07:31.345Z,18.50
2018-06-17T16:10:00.094Z,18.50
2018-06-17T16:13:37.090Z,18.60
2018-06-17T16:16:10.910Z,18.60
2018-06-17T16:18:44.837Z,18.50
2018-06-17T16:21:13.749Z,18.50
2018-06-17T16:23:42.228Z,18.40
2018-06-17T16:26:11.282Z,18.40
2018-06-17T16:28:40.406Z,18.30
2018-06-17T16:31:09.773Z,18.30
2018-06-17T16:33:39.928Z,18.20
2018-06-17T16:36:09.821Z,18.10
2018-06-17T16:38:40.120Z,18.10
2018-06-17T16:41:10.175Z,18.10
2018-06-17T16:43:41.921Z,18.00
2018-06-17T16:46:11.979Z,18.00
2018-06-17T16:48:42.964Z,18.00
2018-06-17T16:51:18.672Z,18.00
2018-06-17T16:53:54.574Z,17.90
2018-06-17T16:56:30.254Z,18.00
2018-06-17T16:59:05.128Z,18.00
2018-06-17T17:01:35.341Z,18.00
2018-06-17T17:04:05.304Z,18.00
2018-06-17T17:06:35.971Z,18.00
2018-06-17T17:09:10.616Z,18.20
2018-06-17T17:11:42.262Z,18.20
2018-06-17T17:14:13.048Z,18.30
2018-06-17T17:19:13.739Z,18.30
2018-06-17T17:21:43.177Z,18.30
2018-06-17T17:24:13.254Z,18.40
2018-06-17T17:26:44.508Z,18.40
2018-06-17T17:29:13.716Z,18.40
2018-06-17T17:31:48.382Z,18.40
2018-06-17T17:34:23.812Z,18.50
2018-06-17T17:37:00.293Z,18.50
2018-06-17T17:39:36.216Z,18.50
2018-06-17T17:42:07.780Z,18.40
2018-06-17T17:47:17.420Z,18.30
2018-06-17T17:49:46.669Z,18.30
2018-06-17T17:52:17.582Z,18.20
2018-06-17T17:54:47.985Z,18.10
2018-06-17T17:57:17.538Z,18.10
2018-06-17T17:59:47.242Z,18.10
2018-06-17T18:02:16.596Z,18.00
2018-06-17T18:04:45.929Z,18.00
2018-06-17T18:09:45.112Z,18.00
2018-06-17T18:12:14.951Z,17.90
2018-06-17T18:14:44.626Z,17.90
2018-06-17T18:17:14.818Z,17.80
2018-06-17T18:19:45.192Z,17.80
2018-06-17T18:22:17.521Z,17.70
2018-06-17T18:24:51.726Z,17.70
2018-06-17T18:27:27.268Z,17.60
2018-06-17T18:30:02.737Z,17.50
2018-06-17T18:32:37.936Z,17.40
2018-06-17T18:35:12.525Z,17.30
2018-06-17T18:37:42.019Z,17.30
2018-06-17T18:40:12.250Z,17.30
2018-06-17T18:42:41.880Z,17.20
2018-06-17T18:45:12.162Z,17.20
2018-06-17T18:47:42.313Z,17.20
2018-06-17T18:50:12.688Z,17.20
2018-06-17T18:52:42.128Z,17.10
2018-06-17T18:55:11.208Z,17.00
2018-06-17T18:57:41.905Z,17.00
2018-06-17T19:00:11.751Z,17.00
2018-06-17T19:02:41.545Z,16.90
2018-06-17T19:05:11.766Z,16.90
2018-06-17T19:07:43.849Z,16.80
2018-06-17T19:10:18.901Z,16.70
2018-06-17T19:12:55.122Z,16.50
2018-06-17T19:15:30.071Z,16.40
2018-06-17T19:18:05.979Z,16.40
2018-06-17T19:20:34.815Z,16.30
2018-06-17T19:23:04.952Z,16.20
2018-06-17T19:25:34.245Z,16.10
2018-06-17T19:28:04.475Z,16.00
2018-06-17T19:30:33.903Z,15.90
2018-06-17T19:33:03.561Z,15.80
2018-06-17T19:35:33.915Z,15.80
2018-06-17T19:40:32.017Z,15.70
2018-06-17T19:43:01.978Z,15.70
2018-06-17T19:45:32.341Z,15.70
2018-06-17T19:48:02.105Z,15.60
2018-06-17T19:50:36.932Z,15.60
2018-06-17T19:53:11.837Z,15.50
2018-06-17T19:55:46.356Z,15.40
2018-06-17T19:58:21.273Z,15.40
2018-06-17T20:00:53.007Z,15.30
2018-06-17T20:03:21.754Z,15.20
2018-06-17T20:05:50.795Z,15.20
2018-06-17T20:08:20.179Z,15.10
2018-06-17T20:10:50.094Z,15.10
2018-06-17T20:13:19.559Z,15.10
2018-06-17T20:15:48.874Z,15.00
2018-06-17T20:18:18.087Z,15.00
2018-06-17T20:20:47.549Z,15.00
2018-06-17T20:23:17.199Z,15.00
2018-06-17T20:25:52.483Z,15.00
2018-06-17T20:28:21.705Z,15.00
2018-06-17T20:30:51.625Z,14.90
2018-06-17T20:33:26.261Z,14.90
2018-06-17T20:36:00.977Z,14.90
2018-06-17T20:38:35.742Z,14.80
2018-06-17T20:41:10.271Z,14.80
2018-06-17T20:43:49.433Z,14.80
2018-06-17T20:46:19.296Z,14.70
2018-06-17T20:48:49.646Z,14.70
2018-06-17T20:51:20.143Z,14.70
2018-06-17T20:53:49.787Z,14.60
2018-06-17T20:56:19.807Z,14.60
2018-06-17T20:58:49.473Z,14.60
2018-06-17T21:01:19.015Z,14.60
2018-06-17T21:03:48.719Z,14.60
2018-06-17T21:06:18.806Z,14.60
2018-06-17T21:08:49.342Z,14.60
2018-06-17T21:11:19.183Z,14.50
2018-06-17T21:13:48.445Z,14.60
2018-06-17T21:16:19.233Z,14.60
2018-06-17T21:18:55.190Z,14.50
2018-06-17T21:21:35.634Z,14.50
2018-06-17T21:26:51.795Z,14.40
2018-06-17T21:29:22.001Z,14.40
2018-06-17T21:31:51.555Z,14.30
2018-06-17T21:34:21.753Z,14.30
2018-06-17T21:39:50.347Z,14.20
2018-06-17T21:42:20.478Z,14.10
2018-06-17T21:44:50.691Z,14.00
2018-06-17T21:47:21.573Z,13.90
2018-06-17T21:49:51.086Z,13.90
2018-06-17T21:54:50.551Z,13.80
2018-06-17T21:57:20.355Z,13.70
2018-06-17T21:59:50.197Z,13.60
2018-06-17T22:02:19.971Z,13.60
2018-06-17T22:04:49.722Z,13.60
2018-06-17T22:07:19.283Z,13.50
2018-06-17T22:09:53.817Z,13.50
2018-06-17T22:12:28.990Z,13.40
2018-06-17T22:15:03.976Z,13.30
2018-06-17T22:17:38.912Z,13.30
2018-06-17T22:20:08.462Z,13.30
2018-06-17T22:22:43.154Z,13.20
2018-06-17T22:25:12.761Z,13.20
2018-06-17T22:27:41.533Z,13.20
2018-06-17T22:32:39.684Z,13.10
2018-06-17T22:35:09.575Z,13.10
2018-06-17T22:37:39.559Z,13.00
2018-06-17T22:40:09.540Z,13.00
2018-06-17T22:42:39.970Z,12.90
2018-06-17T22:45:10.019Z,12.90
2018-06-17T22:47:44.965Z,12.90
2018-06-17T22:50:14.417Z,12.80
2018-06-17T22:52:55.003Z,12.70
2018-06-17T22:55:25.109Z,12.70
2018-06-17T22:58:00.145Z,12.60
2018-06-17T23:00:35.277Z,12.50
2018-06-17T23:03:10.142Z,12.40
2018-06-17T23:05:45.720Z,12.40
2018-06-17T23:08:20.638Z,12.40
2018-06-17T23:10:50.409Z,12.40
2018-06-17T23:13:20.488Z,12.30
2018-06-17T23:15:55.397Z,12.30
2018-06-17T23:18:24.980Z,12.30
2018-06-17T23:20:55.459Z,12.20
2018-06-17T23:23:25.551Z,12.10
2018-06-17T23:25:55.225Z,12.00
2018-06-17T23:28:24.897Z,12.00
2018-06-17T23:30:54.527Z,12.00
2018-06-17T23:33:24.109Z,12.00
2018-06-17T23:35:53.469Z,11.90
2018-06-17T23:38:22.987Z,11.90
2018-06-17T23:40:52.512Z,11.90
2018-06-17T23:43:22.035Z,11.90
2018-06-17T23:48:32.200Z,11.90
2018-06-17T23:51:07.207Z,11.90
2018-06-17T23:53:41.940Z,11.90
2018-06-17T23:56:11.516Z,11.90
2018-06-17T23:58:40.884Z,11.90
